Time;durP1;ratioP1;P1;durP2;ratioP2;P2;SDS_P1;SDS_P2;PMS_P1;PMS_P2;Temp;Humidity;BMP_temperature;BMP_pressure;BME280_temperature;BME280_humidity;BME280_pressure;Samples;Min_cycle;Max_cycle;Signal;HPM_P1;HPM_P2
2023/08/21 00:01:38;;;;;;;;;;;;;;;23.49;100.00;97023.56;5044643;28;19957;-78
2023/08/21 00:04:04;;;;;;;;;;;;;;;23.46;100.00;97019.59;5044625;28;20113;-78
2023/08/21 00:06:29;;;;;;;;;;;;;;;23.44;100.00;97024.44;5044612;28;19957;-78
2023/08/21 00:08:55;;;;;;;;;;;;;;;23.42;100.00;97026.63;5044107;28;19945;-79
2023/08/21 00:11:21;;;;;;;;;;;;;;;23.40;100.00;97023.41;5044858;28;20113;-78
2023/08/21 00:13:49;;;;;;;;;;;;;;;23.38;100.00;97030.94;5044760;28;19961;-78
2023/08/21 00:16:16;;;;;;;;;;;;;;;23.36;100.00;97018.94;5044654;28;20238;-77
2023/08/21 00:18:42;;;;;;;;;;;;;;;23.32;100.00;97016.03;5026848;28;19958;-73
2023/08/21 00:21:08;;;;;;;;;;;;;;;23.29;100.00;97017.41;5044478;28;19955;-73
2023/08/21 00:23:34;;;;;;;;;;;;;;;23.26;100.00;97009.94;5043926;28;19958;-72
2023/08/21 00:25:59;;;;;;;;;;;;;;;23.24;100.00;97016.66;5044248;28;20140;-72
2023/08/21 00:28:25;;;;;;;;;;;;;;;23.22;100.00;97016.13;5044399;28;19958;-73
2023/08/21 00:30:51;;;;;;;;;;;;;;;23.19;100.00;97016.72;5044213;28;19962;-73
2023/08/21 00:33:17;;;;;;;;;;;;;;;23.16;100.00;97015.44;5044346;28;20306;-72
2023/08/21 00:35:43;;;;;;;;;;;;;;;23.13;100.00;97015.97;5044278;28;19989;-72
2023/08/21 00:38:09;;;;;;;;;;;;;;;23.09;100.00;97009.59;5027217;28;20019;-77
2023/08/21 00:40:34;;;;;;;;;;;;;;;23.07;100.00;97011.75;5044588;28;19948;-70
2023/08/21 00:43:00;;;;;;;;;;;;;;;23.05;100.00;97008.56;5026255;28;19964;-70
2023/08/21 00:45:26;;;;;;;;;;;;;;;23.02;100.00;97006.47;5044492;28;19955;-70
2023/08/21 00:47:52;;;;;;;;;;;;;;;22.98;100.00;97003.53;5043947;28;19957;-69
2023/08/21 00:50:18;;;;;;;;;;;;;;;22.96;100.00;97010.25;5044432;28;20001;-69
2023/08/21 00:52:46;;;;;;;;;;;;;;;22.93;100.00;97006.28;5043938;28;20239;-70
2023/08/21 00:55:12;;;;;;;;;;;;;;;22.90;100.00;96999.59;5043990;28;20135;-78
2023/08/21 00:57:39;;;;;;;;;;;;;;;22.87;100.00;96997.50;5044029;28;19960;-73
2023/08/21 01:00:05;;;;;;;;;;;;;;;22.86;100.00;96998.56;5026114;28;19969;-72
2023/08/21 01:02:31;;;;;;;;;;;;;;;22.82;100.00;96997.53;5044220;28;19954;-72
2023/08/21 01:04:57;;;;;;;;;;;;;;;22.79;100.00;96997.31;5043523;28;19953;-73
2023/08/21 01:07:23;;;;;;;;;;;;;;;22.76;100.00;96995.19;5045096;28;19963;-73
2023/08/21 01:09:51;;;;;;;;;;;;;;;22.74;100.00;96992.84;5047709;28;19941;-72
2023/08/21 01:12:33;;;;;;;;;;;;;;;22.73;100.00;96991.22;5047706;28;19955;-83
2023/08/21 01:15:00;;;;;;;;;;;;;;;22.72;100.00;96996.84;5047385;28;19974;-73
2023/08/21 01:17:28;;;;;;;;;;;;;;;22.69;100.00;96993.66;5047585;28;19962;-78
2023/08/21 01:19:55;;;;;;;;;;;;;;;22.67;100.00;96998.50;5047316;28;19951;-78
2023/08/21 01:22:25;;;;;;;;;;;;;;;22.66;100.00;96999.59;5029549;28;19969;-78
2023/08/21 01:24:50;;;;;;;;;;;;;;;22.64;100.00;97001.75;5047349;28;20076;-78
2023/08/21 01:27:17;;;;;;;;;;;;;;;22.61;100.00;97006.84;5047413;28;19985;-77
2023/08/21 01:29:43;;;;;;;;;;;;;;;22.60;100.00;96999.91;5047333;28;20197;-79
2023/08/21 01:32:23;;;;;;;;;;;;;;;22.57;100.00;97000.47;5047197;28;19954;-71
2023/08/21 01:34:50;;;;;;;;;;;;;;;22.53;100.00;96997.53;5046944;28;19962;-78
2023/08/21 01:37:16;;;;;;;;;;;;;;;22.52;100.00;96997.84;5046663;28;19965;-78
2023/08/21 01:39:42;;;;;;;;;;;;;;;22.50;100.00;97006.16;5047312;28;19991;-79
2023/08/21 01:42:08;;;;;;;;;;;;;;;22.47;100.00;97004.03;5046879;28;19993;-78
2023/08/21 01:44:34;;;;;;;;;;;;;;;22.45;100.00;96995.50;5047080;28;19955;-78
2023/08/21 01:47:00;;;;;;;;;;;;;;;22.44;100.00;96996.56;5046792;28;19953;-78
2023/08/21 01:49:26;;;;;;;;;;;;;;;22.41;100.00;97003.28;5012905;28;19968;-85
2023/08/21 01:51:51;;;;;;;;;;;;;;;22.39;100.00;96993.97;5046756;28;19958;-79
2023/08/21 01:54:17;;;;;;;;;;;;;;;22.36;100.00;96999.84;5046345;28;19963;-76
2023/08/21 01:56:43;;;;;;;;;;;;;;;22.33;100.00;96998.53;5046713;28;19972;-76
2023/08/21 01:59:09;;;;;;;;;;;;;;;22.28;100.00;96994.03;5046735;28;19961;-76
2023/08/21 02:01:35;;;;;;;;;;;;;;;22.25;100.00;96989.22;5047023;28;19936;-76
2023/08/21 02:04:01;;;;;;;;;;;;;;;22.24;100.00;97001.00;5046671;28;19958;-76
2023/08/21 02:06:26;;;;;;;;;;;;;;;22.22;100.00;96999.69;5046691;28;19968;-76
2023/08/21 02:08:52;;;;;;;;;;;;;;;22.18;100.00;97002.09;5046299;28;19959;-73
2023/08/21 02:11:18;;;;;;;;;;;;;;;22.16;100.00;96995.44;5046308;28;19976;-79
2023/08/21 02:13:44;;;;;;;;;;;;;;;22.13;100.00;96998.66;5046644;28;19962;-78
2023/08/21 02:16:10;;;;;;;;;;;;;;;22.10;100.00;96997.34;5046131;28;19969;-78
2023/08/21 02:18:36;;;;;;;;;;;;;;;22.08;100.00;96996.81;5045508;28;20287;-78
2023/08/21 02:21:01;;;;;;;;;;;;;;;22.05;100.00;96998.19;5028565;28;19961;-78
2023/08/21 02:23:28;;;;;;;;;;;;;;;22.04;100.00;96995.78;5046231;28;20028;-78
2023/08/21 02:25:54;;;;;;;;;;;;;;;22.01;100.00;96999.03;5046203;28;19964;-71
2023/08/21 02:28:20;;;;;;;;;;;;;;;21.98;100.00;96996.91;5046275;28;20281;-78
2023/08/21 02:30:46;;;;;;;;;;;;;;;21.96;100.00;96997.16;5045658;28;20265;-76
2023/08/21 02:33:12;;;;;;;;;;;;;;;21.94;100.00;97007.31;5028540;28;20291;-77
2023/08/21 02:35:38;;;;;;;;;;;;;;;21.91;100.00;97007.91;5045615;28;19964;-76
2023/08/21 02:38:04;;;;;;;;;;;;;;;21.88;100.00;97006.59;5045574;28;19965;-77
2023/08/21 02:40:30;;;;;;;;;;;;;;;21.86;100.00;97005.28;5045711;28;19960;-76
2023/08/21 02:42:56;;;;;;;;;;;;;;;21.84;100.00;97013.56;5045687;28;20004;-76
2023/08/21 02:45:22;;;;;;;;;;;;;;;21.80;100.00;97009.03;5045708;28;19955;-73
2023/08/21 02:47:48;;;;;;;;;;;;;;;21.77;100.00;97012.25;5045707;28;19989;-73
2023/08/21 02:50:14;;;;;;;;;;;;;;;21.74;100.00;97010.16;5045673;28;19958;-73
2023/08/21 02:52:40;;;;;;;;;;;;;;;21.73;100.00;97000.53;5045804;28;19960;-73
2023/08/21 02:55:06;;;;;;;;;;;;;;;21.72;100.00;97001.63;5045652;28;19952;-73
2023/08/21 02:57:32;;;;;;;;;;;;;;;21.69;100.00;97002.94;5045769;28;20024;-72
2023/08/21 02:59:58;;;;;;;;;;;;;;;21.68;100.00;97006.69;5027638;28;19979;-73
2023/08/21 03:02:24;;;;;;;;;;;;;;;21.65;100.00;97010.72;5045384;28;19958;-72
2023/08/21 03:04:50;;;;;;;;;;;;;;;21.62;100.00;97008.59;5045535;28;20218;-70
2023/08/21 03:07:16;;;;;;;;;;;;;;;21.59;100.00;97001.13;5045096;28;19964;-78
2023/08/21 03:09:41;;;;;;;;;;;;;;;21.58;100.00;97009.41;5045410;28;19948;-78
2023/08/21 03:12:08;;;;;;;;;;;;;;;21.57;100.00;97007.84;5044894;28;19955;-78
2023/08/21 03:14:34;;;;;;;;;;;;;;;21.56;100.00;97004.34;5045177;28;19948;-78
2023/08/21 03:16:59;;;;;;;;;;;;;;;21.52;100.00;96997.16;5045030;28;19985;-77
2023/08/21 03:19:26;;;;;;;;;;;;;;;21.49;100.00;97004.66;5045141;28;20220;-77
2023/08/21 03:21:51;;;;;;;;;;;;;;;21.46;100.00;96993.72;5027342;28;19961;-73
2023/08/21 03:24:17;;;;;;;;;;;;;;;21.44;100.00;97001.19;5045251;28;19965;-78
2023/08/21 03:26:44;;;;;;;;;;;;;;;21.41;100.00;96996.38;5045141;28;20127;-78
2023/08/21 03:29:10;;;;;;;;;;;;;;;21.40;100.00;96994.81;5045305;28;19959;-78
2023/08/21 03:31:35;;;;;;;;;;;;;;;21.37;100.00;96998.78;5044335;28;19938;-78
2023/08/21 03:34:02;;;;;;;;;;;;;;;21.36;100.00;97001.75;5045274;28;20253;-78
2023/08/21 03:36:31;;;;;;;;;;;;;;;21.35;100.00;96997.47;5044624;28;19964;-77
2023/08/21 03:39:00;;;;;;;;;;;;;;;21.33;100.00;96996.97;5044529;28;20109;-78
2023/08/21 03:41:26;;;;;;;;;;;;;;;21.33;100.00;96997.75;5044672;28;19958;-77
2023/08/21 03:43:52;;;;;;;;;;;;;;;21.33;100.00;97004.97;5027039;28;19959;-78
2023/08/21 03:46:18;;;;;;;;;;;;;;;21.29;100.00;96997.50;5027223;28;19996;-77
2023/08/21 03:48:44;;;;;;;;;;;;;;;21.27;100.00;97005.00;5044719;28;19995;-79
2023/08/21 03:51:10;;;;;;;;;;;;;;;21.25;100.00;97000.97;5044743;28;20226;-78
2023/08/21 03:53:36;;;;;;;;;;;;;;;21.24;100.00;96996.72;5044758;28;20019;-78
2023/08/21 03:56:01;;;;;;;;;;;;;;;21.22;100.00;96997.00;5044702;28;19972;-77
2023/08/21 03:58:27;;;;;;;;;;;;;;;21.19;100.00;97000.22;5044670;28;19955;-73
2023/08/21 04:00:53;;;;;;;;;;;;;;;21.19;100.00;97007.44;5044646;28;20215;-84
2023/08/21 04:03:19;;;;;;;;;;;;;;;21.19;100.00;97012.75;5044947;28;20030;-83
2023/08/21 04:05:45;;;;;;;;;;;;;;;21.16;100.00;97016.75;5044250;28;19951;-84
2023/08/21 04:08:11;;;;;;;;;;;;;;;21.15;100.00;97015.16;5026662;28;19999;-84
2023/08/21 04:10:38;;;;;;;;;;;;;;;21.15;100.00;97022.38;5044308;28;20197;-84
2023/08/21 04:13:04;;;;;;;;;;;;;;;21.14;100.00;97023.44;5044764;28;20115;-84
2023/08/21 04:15:30;;;;;;;;;;;;;;;21.12;100.00;97026.38;5026569;28;19962;-84
2023/08/21 04:17:56;;;;;;;;;;;;;;;21.10;100.00;97028.50;5044504;28;20266;-71
2023/08/21 04:20:22;;;;;;;;;;;;;;;21.08;100.00;97028.78;5026515;28;19957;-76
2023/08/21 04:22:48;;;;;;;;;;;;;;;21.06;100.00;97020.25;5044019;28;19984;-76
2023/08/21 04:25:14;;;;;;;;;;;;;;;21.06;100.00;97033.59;5044437;28;19953;-77
2023/08/21 04:27:41;;;;;;;;;;;;;;;21.04;100.00;97030.41;5044360;28;20207;-76
2023/08/21 04:30:07;;;;;;;;;;;;;;;21.01;100.00;97027.47;5026965;28;19953;-77
2023/08/21 04:32:33;;;;;;;;;;;;;;;21.00;100.00;97032.00;5044026;28;19965;-76
2023/08/21 04:34:59;;;;;;;;;;;;;;;20.99;100.00;97033.06;5026773;28;19958;-78
2023/08/21 04:37:25;;;;;;;;;;;;;;;20.97;100.00;97029.06;5043915;28;20046;-73
2023/08/21 04:39:54;;;;;;;;;;;;;;;20.97;100.00;97039.75;5026325;28;19959;-70
2023/08/21 04:42:20;;;;;;;;;;;;;;;20.96;100.00;97032.81;5044850;28;19967;-70
2023/08/21 04:44:46;;;;;;;;;;;;;;;20.97;100.00;97029.88;5047975;28;19958;-70
2023/08/21 04:47:27;;;;;;;;;;;;;;;20.98;100.00;97031.47;5048178;28;19956;-70
2023/08/21 04:49:54;;;;;;;;;;;;;;;21.00;100.00;97029.34;5048021;28;19976;-70
2023/08/21 04:52:20;;;;;;;;;;;;;;;20.99;100.00;97030.41;5048055;28;20148;-70
2023/08/21 04:54:47;;;;;;;;;;;;;;;21.00;100.00;97036.56;5048235;28;20101;-84
2023/08/21 04:57:13;;;;;;;;;;;;;;;21.00;100.00;97039.22;5047851;28;20149;-72
2023/08/21 04:59:39;;;;;;;;;;;;;;;21.00;100.00;97045.34;5030577;28;20262;-73
2023/08/21 05:02:05;;;;;;;;;;;;;;;21.03;100.00;97036.00;5047483;28;19949;-73
2023/08/21 05:04:32;;;;;;;;;;;;;;;21.07;100.00;97042.38;5047883;28;19958;-73
2023/08/21 05:06:57;;;;;;;;;;;;;;;21.13;100.00;97043.19;5047474;28;19958;-73
2023/08/21 05:09:23;;;;;;;;;;;;;;;21.20;100.00;97054.34;5029676;28;19962;-73
2023/08/21 05:11:49;;;;;;;;;;;;;;;21.25;100.00;97052.47;5047426;28;19959;-73
2023/08/21 05:14:15;;;;;;;;;;;;;;;21.31;100.00;97052.44;5047619;28;19961;-73
2023/08/21 05:16:41;;;;;;;;;;;;;;;21.38;100.00;97056.44;5047423;28;19968;-78
2023/08/21 05:19:07;;;;;;;;;;;;;;;21.45;100.00;97059.63;5047542;28;19964;-78
2023/08/21 05:21:33;;;;;;;;;;;;;;;21.55;100.00;97058.00;5047557;28;19951;-77
2023/08/21 05:23:59;;;;;;;;;;;;;;;21.65;100.00;97057.97;5029588;28;20235;-77
2023/08/21 05:26:25;;;;;;;;;;;;;;;21.77;100.00;97049.63;5047689;28;19940;-77
2023/08/21 05:28:51;;;;;;;;;;;;;;;21.92;100.00;97056.75;5047396;28;19955;-77
2023/08/21 05:31:16;;;;;;;;;;;;;;;22.09;100.00;97060.66;5047255;28;19956;-70
2023/08/21 05:33:42;;;;;;;;;;;;;;;22.32;100.00;97063.72;5047496;28;20046;-78
2023/08/21 05:36:08;;;;;;;;;;;;;;;22.55;100.00;97059.53;5046975;28;20117;-78
2023/08/21 05:38:34;;;;;;;;;;;;;;;22.78;100.00;97058.00;5046888;28;19967;-78
2023/08/21 05:41:00;;;;;;;;;;;;;;;23.03;100.00;97057.00;5046842;28;19967;-78
2023/08/21 05:43:26;;;;;;;;;;;;;;;23.29;100.00;97059.44;5047180;28;19955;-78
2023/08/21 05:45:52;;;;;;;;;;;;;;;23.55;100.00;97053.78;5046896;28;20010;-78
2023/08/21 05:48:18;;;;;;;;;;;;;;;23.82;100.00;97050.50;5046974;28;19994;-76
2023/08/21 05:50:44;;;;;;;;;;;;;;;24.07;100.00;97046.69;5029159;28;19956;-78
2023/08/21 05:53:09;;;;;;;;;;;;;;;24.30;100.00;97035.06;5046179;28;19950;-71
2023/08/21 05:55:38;;;;;;;;;;;;;;;24.57;100.00;97036.28;5046268;28;19989;-72
2023/08/21 05:58:04;;;;;;;;;;;;;;;24.80;100.00;97029.19;5046588;28;19952;-71
2023/08/21 06:00:30;;;;;;;;;;;;;;;24.97;100.00;97028.63;5029185;28;20313;-70
2023/08/21 06:02:56;;;;;;;;;;;;;;;25.17;99.83;97027.41;5046319;28;19966;-71
2023/08/21 06:05:22;;;;;;;;;;;;;;;25.29;98.73;97025.06;5046812;28;19961;-71
2023/08/21 06:07:48;;;;;;;;;;;;;;;25.41;97.70;97023.75;5046785;28;19966;-73
2023/08/21 06:10:15;;;;;;;;;;;;;;;25.49;97.09;97025.75;5046409;28;19991;-85
2023/08/21 06:12:41;;;;;;;;;;;;;;;25.57;97.08;97025.03;5028716;28;19967;-82
2023/08/21 06:15:09;;;;;;;;;;;;;;;25.68;98.22;97033.69;5028733;28;19965;-83
2023/08/21 06:17:36;;;;;;;;;;;;;;;25.78;97.16;97027.31;5046298;28;20256;-82
2023/08/21 06:20:05;;;;;;;;;;;;;;;25.92;97.79;97031.56;5046293;28;20176;-84
2023/08/21 06:22:31;;;;;;;;;;;;;;;26.04;96.67;97031.06;5045739;28;19954;-82
2023/08/21 06:24:57;;;;;;;;;;;;;;;26.04;95.22;97025.66;5028742;28;19987;-74
2023/08/21 06:27:23;;;;;;;;;;;;;;;25.92;95.74;97025.41;5028607;28;19949;-72
2023/08/21 06:29:49;;;;;;;;;;;;;;;25.86;97.43;97046.19;5028145;28;19955;-84
2023/08/21 06:32:14;;;;;;;;;;;;;;;25.86;94.24;97023.91;5046675;28;20000;-83
2023/08/21 06:34:40;;;;;;;;;;;;;;;25.84;96.05;97031.47;5046205;28;19962;-84
2023/08/21 06:37:06;;;;;;;;;;;;;;;25.89;96.53;97042.13;5045611;28;20042;-84
2023/08/21 06:39:32;;;;;;;;;;;;;;;25.94;95.87;97038.56;5045783;28;19952;-83
2023/08/21 06:42:00;;;;;;;;;;;;;;;25.96;95.22;97037.13;5027649;28;19959;-84
2023/08/21 06:44:26;;;;;;;;;;;;;;;25.97;95.14;97032.56;5045847;28;19962;-77
2023/08/21 06:46:52;;;;;;;;;;;;;;;26.04;95.83;97039.13;5027939;28;19965;-79
2023/08/21 06:49:18;;;;;;;;;;;;;;;26.12;95.16;97034.88;5045690;28;19959;-78
2023/08/21 06:51:44;;;;;;;;;;;;;;;26.14;94.64;97035.38;5045578;28;19974;-78
2023/08/21 06:54:09;;;;;;;;;;;;;;;26.22;95.73;97048.09;5045125;28;19944;-78
2023/08/21 06:56:35;;;;;;;;;;;;;;;26.35;96.48;97051.81;5045457;28;19963;-77
2023/08/21 06:59:01;;;;;;;;;;;;;;;26.40;94.58;97040.97;5045067;28;19958;-78
2023/08/21 07:01:28;;;;;;;;;;;;;;;26.55;94.45;97042.50;5044857;28;19958;-78
2023/08/21 07:03:54;;;;;;;;;;;;;;;26.61;93.18;97035.91;5045373;28;19962;-77
2023/08/21 07:06:19;;;;;;;;;;;;;;;26.66;92.92;97033.09;5044766;28;19965;-79
2023/08/21 07:08:45;;;;;;;;;;;;;;;26.73;92.47;97038.84;5045223;28;19998;-79
2023/08/21 07:11:12;;;;;;;;;;;;;;;26.79;91.90;97039.47;5045416;28;19961;-78
2023/08/21 07:13:38;;;;;;;;;;;;;;;26.85;93.79;97042.84;5045139;28;19957;-79
2023/08/21 07:16:05;;;;;;;;;;;;;;;26.96;94.88;97046.06;5045357;28;19954;-79
2023/08/21 07:18:35;;;;;;;;;;;;;;;27.10;95.81;97047.56;5045343;28;20234;-78
2023/08/21 07:21:04;;;;;;;;;;;;;;;27.22;94.96;97048.88;5027328;28;19974;-70
2023/08/21 07:23:33;;;;;;;;;;;;;;;27.34;91.54;97024.88;5045078;28;19963;-85
2023/08/21 07:26:02;;;;;;;;;;;;;;;27.39;90.34;97032.00;5044752;28;19961;-85
2023/08/21 07:28:27;;;;;;;;;;;;;;;27.33;91.03;97029.44;5045190;28;19958;-85
2023/08/21 07:30:59;;;;;;;;;;;;;;;27.36;89.50;97032.63;5044818;28;19955;-85
2023/08/21 07:33:25;;;;;;;;;;;;;;;27.40;88.42;97033.59;5044922;28;19962;-85
2023/08/21 07:36:01;;;;;;;;;;;;;;;27.45;91.19;97047.72;5044731;28;19959;-85
2023/08/21 07:38:27;;;;;;;;;;;;;;;27.54;90.46;97043.13;5044812;28;19963;-85
2023/08/21 07:41:04;;;;;;;;;;;;;;;27.60;88.82;97035.72;5045056;28;19954;-71
2023/08/21 07:43:30;;;;;;;;;;;;;;;27.68;89.32;97037.63;5044847;28;19969;-78
2023/08/21 07:45:56;;;;;;;;;;;;;;;27.76;89.65;97037.94;5044643;28;19943;-79
2023/08/21 07:48:21;;;;;;;;;;;;;;;27.76;88.07;97030.66;5045117;28;20046;-80
2023/08/21 07:50:51;;;;;;;;;;;;;;;27.73;87.86;97032.06;5044452;28;20169;-81
2023/08/21 07:53:17;;;;;;;;;;;;;;;27.77;89.89;97047.63;5044469;28;19959;-79
2023/08/21 07:55:43;;;;;;;;;;;;;;;27.81;91.10;97057.47;5044493;28;19978;-79
2023/08/21 07:58:09;;;;;;;;;;;;;;;27.93;89.70;97048.78;5044437;28;19972;-73
2023/08/21 08:00:35;;;;;;;;;;;;;;;28.03;89.70;97044.97;5044760;28;19977;-78
2023/08/21 08:03:01;;;;;;;;;;;;;;;28.09;90.72;97049.09;5044813;28;20257;-78
2023/08/21 08:05:27;;;;;;;;;;;;;;;28.17;89.58;97044.84;5026694;28;20154;-78
2023/08/21 08:07:53;;;;;;;;;;;;;;;28.23;87.93;97036.25;5044548;28;19959;-78
2023/08/21 08:10:19;;;;;;;;;;;;;;;28.24;86.17;97023.56;5044583;28;19995;-78
2023/08/21 08:12:45;;;;;;;;;;;;;;;28.26;87.78;97037.53;5043958;28;20003;-78
2023/08/21 08:15:10;;;;;;;;;;;;;;;28.30;88.21;97035.78;5044847;28;19951;-78
2023/08/21 08:17:36;;;;;;;;;;;;;;;28.40;87.65;97040.06;5046152;28;20261;-83
2023/08/21 08:20:02;;;;;;;;;;;;;;;28.39;87.71;97043.84;5048490;28;20141;-73
2023/08/21 08:22:28;;;;;;;;;;;;;;;28.33;86.63;97040.53;5048351;28;20242;-73
2023/08/21 08:24:54;;;;;;;;;;;;;;;28.31;85.25;97021.19;5048302;28;20212;-73
2023/08/21 08:27:19;;;;;;;;;;;;;;;28.29;86.46;97040.38;5048298;28;20235;-73
2023/08/21 08:29:45;;;;;;;;;;;;;;;28.31;88.48;97043.56;5048293;28;19952;-73
2023/08/21 08:32:11;;;;;;;;;;;;;;;28.37;86.83;97027.19;5047896;28;19961;-73
2023/08/21 08:34:37;;;;;;;;;;;;;;;28.36;85.86;97031.81;5048524;28;20245;-73
2023/08/21 08:37:03;;;;;;;;;;;;;;;28.46;87.48;97038.78;5048178;28;19969;-76
2023/08/21 08:39:29;;;;;;;;;;;;;;;28.59;87.07;97037.03;5048307;28;19956;-76
2023/08/21 08:41:57;;;;;;;;;;;;;;;28.67;85.95;97030.84;5048226;28;19976;-76
2023/08/21 08:44:25;;;;;;;;;;;;;;;28.79;84.73;97022.06;5047720;28;19939;-76
2023/08/21 08:46:51;;;;;;;;;;;;;;;28.87;82.36;97008.56;5048403;28;19960;-75
2023/08/21 08:49:17;;;;;;;;;;;;;;;28.98;83.94;97016.28;5047743;28;20130;-75
2023/08/21 08:51:44;;;;;;;;;;;;;;;29.02;84.45;97023.44;5047581;28;19957;-76
2023/08/21 08:54:12;;;;;;;;;;;;;;;29.12;82.99;97011.50;5048200;28;19950;-78
2023/08/21 08:56:37;;;;;;;;;;;;;;;29.15;81.75;97005.44;5047928;28;19966;-73
2023/08/21 08:59:05;;;;;;;;;;;;;;;29.23;80.49;97004.63;5047691;28;20021;-73
2023/08/21 09:01:31;;;;;;;;;;;;;;;29.21;78.46;96982.53;5047399;28;19961;-73
2023/08/21 09:03:57;;;;;;;;;;;;;;;29.30;84.96;97031.91;5047773;28;19959;-73
2023/08/21 09:06:23;;;;;;;;;;;;;;;29.42;75.70;96977.19;5047814;28;19984;-73
2023/08/21 09:08:56;;;;;;;;;;;;;;;29.47;77.79;96976.97;5047825;28;20230;-73
2023/08/21 09:11:22;;;;;;;;;;;;;;;29.49;72.30;96939.59;5047178;28;19938;-73
2023/08/21 09:13:51;;;;;;;;;;;;;;;29.52;76.45;96995.72;5047576;28;19961;-71
2023/08/21 09:16:18;;;;;;;;;;;;;;;29.54;72.74;96976.44;5047207;28;19953;-73
2023/08/21 09:18:47;;;;;;;;;;;;;;;29.63;73.55;96987.19;5047261;28;19961;-73
2023/08/21 09:21:17;;;;;;;;;;;;;;;29.75;75.38;96995.41;5047354;28;19960;-73
2023/08/21 09:23:43;;;;;;;;;;;;;;;29.77;69.23;96981.56;5047287;28;19961;-73
2023/08/21 09:26:09;;;;;;;;;;;;;;;29.77;73.76;97022.13;5047224;28;19979;-73
2023/08/21 09:28:35;;;;;;;;;;;;;;;29.69;67.78;97004.81;5046787;28;20232;-73
2023/08/21 09:31:02;;;;;;;;;;;;;;;29.68;72.44;97022.94;5047360;28;19952;-85
2023/08/21 09:33:28;;;;;;;;;;;;;;;29.72;73.40;97021.19;5047088;28;19958;-79
2023/08/21 09:35:55;;;;;;;;;;;;;;;29.85;69.69;97007.75;5047304;28;19996;-80
2023/08/21 09:38:21;;;;;;;;;;;;;;;29.96;72.28;97019.75;5047121;28;19963;-79
2023/08/21 09:40:52;;;;;;;;;;;;;;;29.99;71.41;97016.41;5046030;28;20461;-80
2023/08/21 09:43:19;;;;;;;;;;;;;;;30.01;75.45;97033.09;5029555;28;19969;-80
2023/08/21 09:45:46;;;;;;;;;;;;;;;30.01;74.42;97033.09;5046813;28;19960;-80
2023/08/21 09:48:13;;;;;;;;;;;;;;;30.04;73.78;97035.13;5046700;28;19958;-70
2023/08/21 09:50:40;;;;;;;;;;;;;;;30.08;73.97;97027.16;5046937;28;19954;-70
2023/08/21 09:53:06;;;;;;;;;;;;;;;30.05;73.05;97020.50;5046420;28;20118;-70
2023/08/21 09:55:52;;;;;;;;;;;;;;;30.03;74.42;97030.84;5046956;28;20244;-71
2023/08/21 09:58:19;;;;;;;;;;;;;;;29.98;75.94;97030.25;5046895;28;19961;-70
2023/08/21 10:00:45;;;;;;;;;;;;;;;29.92;75.37;97027.75;5046778;28;19965;-71
2023/08/21 10:03:12;;;;;;;;;;;;;;;29.89;74.72;97030.31;5046299;28;19950;-71
2023/08/21 10:05:39;;;;;;;;;;;;;;;29.80;73.75;97016.88;5046535;28;19963;-71
2023/08/21 10:08:06;;;;;;;;;;;;;;;29.81;75.11;97023.06;5029249;28;19960;-71
2023/08/21 10:10:33;;;;;;;;;;;;;;;29.88;74.34;97013.31;5046323;28;19962;-73
2023/08/21 10:13:00;;;;;;;;;;;;;;;29.83;73.32;97010.00;5046183;28;20148;-73
2023/08/21 10:15:29;;;;;;;;;;;;;;;29.77;75.04;97022.91;5046306;28;20257;-73
2023/08/21 10:17:55;;;;;;;;;;;;;;;29.85;75.85;97021.28;5046141;28;20254;-73
2023/08/21 10:20:23;;;;;;;;;;;;;;;30.02;74.14;97009.53;5046377;28;19953;-73
2023/08/21 10:22:50;;;;;;;;;;;;;;;30.18;70.83;96994.28;5046438;28;20142;-73
2023/08/21 10:25:17;;;;;;;;;;;;;;;30.34;70.57;96997.97;5046405;28;19956;-84
2023/08/21 10:27:43;;;;;;;;;;;;;;;30.45;70.03;96990.22;5046397;28;19971;-75
2023/08/21 10:30:13;;;;;;;;;;;;;;;30.48;68.75;96983.34;5046278;28;19935;-75
2023/08/21 10:32:49;;;;;;;;;;;;;;;30.53;67.98;96983.13;5045710;28;19961;-76
2023/08/21 10:35:17;;;;;;;;;;;;;;;30.61;63.38;96959.81;5028563;28;20125;-76
2023/08/21 10:38:02;;;;;;;;;;;;;;;30.73;65.14;96968.72;5045664;28;19975;-76
2023/08/21 10:40:28;;;;;;;;;;;;;;;30.89;68.55;96973.50;5045590;28;19957;-76
2023/08/21 10:42:54;;;;;;;;;;;;;;;30.99;63.50;96964.16;5046029;28;19955;-84
2023/08/21 10:45:19;;;;;;;;;;;;;;;31.09;66.69;96972.63;5045985;28;19993;-85
2023/08/21 10:47:47;;;;;;;;;;;;;;;31.19;68.47;96971.38;5045868;28;19965;-76
2023/08/21 10:50:12;;;;;;;;;;;;;;;31.36;69.07;96979.25;5045841;28;19950;-76
2023/08/21 10:52:41;;;;;;;;;;;;;;;31.54;67.13;96969.00;5045280;28;20124;-76
2023/08/21 10:55:09;;;;;;;;;;;;;;;31.73;68.22;96973.81;5046033;28;19967;-76
2023/08/21 10:57:35;;;;;;;;;;;;;;;31.94;68.82;96975.53;5045263;28;19964;-76
2023/08/21 11:00:05;;;;;;;;;;;;;;;32.07;61.04;96947.28;5045325;28;20248;-76
2023/08/21 11:02:31;;;;;;;;;;;;;;;32.13;64.11;96956.75;5046230;28;19965;-73
2023/08/21 11:04:58;;;;;;;;;;;;;;;32.30;65.69;96968.44;5045391;28;19972;-79
2023/08/21 11:07:24;;;;;;;;;;;;;;;32.35;63.47;96966.22;5045378;28;19981;-78
2023/08/21 11:09:50;;;;;;;;;;;;;;;32.51;63.58;96965.50;5045398;28;19959;-78
2023/08/21 11:12:18;;;;;;;;;;;;;;;32.67;64.58;96968.22;5045549;28;20248;-78
2023/08/21 11:14:44;;;;;;;;;;;;;;;32.84;62.45;96959.72;5044917;28;19955;-78
2023/08/21 11:17:10;;;;;;;;;;;;;;;32.85;63.11;96965.97;5045357;28;19966;-79
2023/08/21 11:19:37;;;;;;;;;;;;;;;32.95;63.14;96968.94;5045314;28;19957;-84
2023/08/21 11:22:06;;;;;;;;;;;;;;;33.03;61.21;96964.44;5045122;28;19975;-73
2023/08/21 11:24:38;;;;;;;;;;;;;;;33.10;62.67;96974.75;5045523;28;20110;-76
2023/08/21 11:27:05;;;;;;;;;;;;;;;33.07;63.16;96973.50;5045218;28;19967;-76
2023/08/21 11:29:38;;;;;;;;;;;;;;;33.11;63.18;96979.03;5044904;28;20147;-76
2023/08/21 11:32:14;;;;;;;;;;;;;;;33.20;63.24;96976.94;5044937;28;19966;-75
2023/08/21 11:34:41;;;;;;;;;;;;;;;33.36;61.06;96966.00;5044664;28;19957;-76
2023/08/21 11:37:07;;;;;;;;;;;;;;;33.45;58.82;96963.09;5044846;28;20148;-76
2023/08/21 11:39:43;;;;;;;;;;;;;;;33.45;60.69;96960.38;5045062;28;20148;-81
2023/08/21 11:42:11;;;;;;;;;;;;;;;33.46;61.38;96962.75;5044484;28;20222;-76
2023/08/21 11:44:41;;;;;;;;;;;;;;;33.19;60.10;96967.19;5045205;28;19963;-75
2023/08/21 11:47:07;;;;;;;;;;;;;;;32.95;61.86;96970.88;5045124;28;19959;-76
2023/08/21 11:49:32;;;;;;;;;;;;;;;32.59;61.07;96967.28;5044541;28;19956;-75
2023/08/21 11:51:58;;;;;;;;;;;;;;;32.26;62.15;96973.75;5044331;28;19963;-75
2023/08/21 11:54:24;;;;;;;;;;;;;;;32.40;63.64;96977.97;5044670;28;20130;-76
2023/08/21 11:56:50;;;;;;;;;;;;;;;32.62;63.24;96965.78;5044550;28;20053;-81
2023/08/21 11:59:22;;;;;;;;;;;;;;;32.89;63.90;96967.63;5044641;28;20124;-73
2023/08/21 12:01:50;;;;;;;;;;;;;;;33.05;59.24;96950.50;5044655;28;19958;-72
2023/08/21 12:04:15;;;;;;;;;;;;;;;33.03;60.59;96961.72;5044641;28;20137;-73
2023/08/21 12:06:45;;;;;;;;;;;;;;;33.06;58.78;96950.16;5044748;28;19953;-72
2023/08/21 12:09:11;;;;;;;;;;;;;;;33.10;58.65;96951.06;5044142;28;19941;-73
2023/08/21 12:11:38;;;;;;;;;;;;;;;33.22;56.87;96947.47;5044930;28;20017;-72
2023/08/21 12:14:04;;;;;;;;;;;;;;;33.32;58.17;96949.63;5044438;28;19954;-73
2023/08/21 12:16:30;;;;;;;;;;;;;;;33.38;55.98;96943.91;5044249;28;19964;-78
2023/08/21 12:18:59;;;;;;;;;;;;;;;33.46;59.95;96949.16;5044166;28;19987;-73
2023/08/21 12:21:25;;;;;;;;;;;;;;;33.52;60.45;96953.16;5044526;28;19954;-73
2023/08/21 12:23:50;;;;;;;;;;;;;;;33.56;59.34;96956.75;5044538;28;19965;-73
2023/08/21 12:26:20;;;;;;;;;;;;;;;33.69;60.37;96956.66;5044506;28;19962;-73
2023/08/21 12:28:47;;;;;;;;;;;;;;;33.64;58.25;96949.56;5044342;28;19953;-72
2023/08/21 12:31:13;;;;;;;;;;;;;;;33.71;56.06;96946.22;5044517;28;19955;-73
2023/08/21 12:33:38;;;;;;;;;;;;;;;33.78;58.30;96934.69;5044478;28;20130;-74
2023/08/21 12:36:04;;;;;;;;;;;;;;;33.80;59.33;96944.06;5043888;28;19957;-80
2023/08/21 12:38:30;;;;;;;;;;;;;;;33.79;57.55;96922.63;5044016;28;19967;-81
2023/08/21 12:40:56;;;;;;;;;;;;;;;33.81;57.17;96926.59;5044389;28;20029;-81